createdAt,value
2023-04-12T00:00:17.838Z,79.54
2023-04-12T00:01:41.498Z,79.65
2023-04-12T00:02:45.492Z,79.44
2023-04-12T00:03:51.159Z,79.54
2023-04-12T00:04:57.601Z,79.58
2023-04-12T00:06:03.566Z,79.54
2023-04-12T00:07:06.694Z,79.57
2023-04-12T00:08:10.892Z,79.44
2023-04-12T00:09:14.596Z,79.68
2023-04-12T00:10:17.532Z,79.63
2023-04-12T00:11:20.895Z,79.49
2023-04-12T00:12:24.152Z,79.52
2023-04-12T00:13:27.034Z,79.66
2023-04-12T00:14:30.037Z,79.46
2023-04-12T00:15:32.940Z,79.64
2023-04-12T00:16:37.166Z,79.54
2023-04-12T00:17:40.357Z,79.64
2023-04-12T00:18:45.891Z,79.49
2023-04-12T00:19:50.178Z,79.64
2023-04-12T00:20:53.364Z,79.68
2023-04-12T00:21:56.665Z,79.37
2023-04-12T00:22:59.494Z,79.31
2023-04-12T00:24:02.424Z,79.43
2023-04-12T00:25:06.698Z,79.38
2023-04-12T00:26:09.612Z,79.36
2023-04-12T00:27:13.318Z,79.40
2023-04-12T00:28:16.348Z,79.25
2023-04-12T00:29:19.742Z,79.40
2023-04-12T00:30:24.010Z,79.26
2023-04-12T00:31:27.003Z,79.33
2023-04-12T00:32:30.002Z,79.44
2023-04-12T00:33:34.346Z,79.38
2023-04-12T00:34:37.181Z,79.44
2023-04-12T00:35:40.060Z,79.44
2023-04-12T00:36:43.350Z,79.58
2023-04-12T00:37:46.554Z,79.60
2023-04-12T00:38:49.445Z,79.74
2023-04-12T00:39:52.796Z,79.56
2023-04-12T00:40:55.950Z,79.65
2023-04-12T00:42:03.563Z,79.82
2023-04-12T00:43:06.538Z,79.94
2023-04-12T00:44:10.148Z,79.81
2023-04-12T00:45:14.465Z,79.87
2023-04-12T00:46:20.008Z,80.04
2023-04-12T00:47:23.075Z,79.88
2023-04-12T00:48:28.986Z,80.08
2023-04-12T00:49:34.372Z,80.05
2023-04-12T00:50:37.419Z,80.05
2023-04-12T00:51:40.626Z,79.96
2023-04-12T00:52:43.529Z,80.06
2023-04-12T00:53:46.511Z,80.19
2023-04-12T00:54:50.015Z,80.15
2023-04-12T00:55:53.301Z,80.25
2023-04-12T00:56:59.986Z,80.12
2023-04-12T00:58:03.651Z,80.12
2023-04-12T00:59:06.748Z,80.05
2023-04-12T01:00:13.879Z,80.02
2023-04-12T01:01:17.376Z,80.22
2023-04-12T01:02:20.559Z,80.19
2023-04-12T01:03:24.224Z,80.18
2023-04-12T01:04:28.904Z,80.17
2023-04-12T01:05:36.359Z,80.35
2023-04-12T01:07:05.304Z,80.42
2023-04-12T01:08:34.243Z,80.47
2023-04-12T01:10:05.024Z,80.70
2023-04-12T01:11:40.007Z,80.78
2023-04-12T01:13:07.645Z,80.77
2023-04-12T01:14:34.167Z,80.93
2023-04-12T01:15:45.670Z,81.01
2023-04-12T01:16:51.327Z,81.16
2023-04-12T01:18:00.034Z,81.13
2023-04-12T01:19:13.751Z,81.23
2023-04-12T01:20:23.579Z,81.28
2023-04-12T01:21:31.339Z,81.33
2023-04-12T01:22:53.498Z,81.47
2023-04-12T01:24:14.111Z,81.41
2023-04-12T01:25:39.943Z,81.40
2023-04-12T01:26:48.533Z,81.49
2023-04-12T01:27:57.044Z,81.54
2023-04-12T01:29:03.172Z,81.54
2023-04-12T01:30:08.380Z,81.75
2023-04-12T01:31:14.022Z,81.54
2023-04-12T01:32:18.470Z,81.57
2023-04-12T01:33:22.234Z,81.64
2023-04-12T01:34:28.493Z,81.69
2023-04-12T01:35:34.638Z,81.52
2023-04-12T01:36:40.064Z,81.74
2023-04-12T01:37:43.988Z,81.63
2023-04-12T01:38:47.064Z,81.70
2023-04-12T01:39:50.564Z,81.67
2023-04-12T01:40:55.039Z,81.75
2023-04-12T01:41:57.921Z,81.70
2023-04-12T01:43:05.339Z,81.62
2023-04-12T01:44:08.596Z,81.77
2023-04-12T01:45:11.865Z,81.68
2023-04-12T01:46:22.799Z,81.78
2023-04-12T01:47:27.203Z,81.69
2023-04-12T01:48:30.254Z,81.77
2023-04-12T01:49:45.123Z,81.85
2023-04-12T01:51:06.498Z,81.80
2023-04-12T01:52:18.948Z,81.82
2023-04-12T01:53:48.881Z,81.93
2023-04-12T01:54:57.491Z,81.99
2023-04-12T01:56:07.417Z,82.02
2023-04-12T01:57:11.086Z,81.96
2023-04-12T01:58:17.401Z,81.93
2023-04-12T01:59:24.371Z,82.05
2023-04-12T02:00:28.164Z,81.89
2023-04-12T02:01:31.574Z,81.98
2023-04-12T02:02:36.650Z,81.92
2023-04-12T02:03:43.175Z,81.91
2023-04-12T02:04:47.743Z,82.00
2023-04-12T02:05:52.313Z,82.12
2023-04-12T02:06:57.409Z,81.87
2023-04-12T02:08:02.943Z,82.00
2023-04-12T02:09:06.625Z,82.18
2023-04-12T02:10:14.777Z,82.07
2023-04-12T02:11:17.678Z,82.01
2023-04-12T02:12:20.834Z,82.06
2023-04-12T02:13:23.830Z,82.12
2023-04-12T02:14:27.190Z,82.02
2023-04-12T02:15:30.886Z,82.16
2023-04-12T02:16:35.951Z,82.05
2023-04-12T02:17:41.061Z,82.19
2023-04-12T02:18:44.920Z,82.02
2023-04-12T02:19:50.466Z,82.11
2023-04-12T02:20:55.703Z,82.24
2023-04-12T02:21:58.592Z,82.15
2023-04-12T02:23:01.578Z,82.31
2023-04-12T02:24:04.748Z,82.14
2023-04-12T02:25:08.008Z,82.39
2023-04-12T02:26:11.654Z,82.15
2023-04-12T02:27:14.563Z,82.29
2023-04-12T02:28:17.450Z,82.20
2023-04-12T02:29:20.328Z,82.46
2023-04-12T02:30:23.932Z,82.35
2023-04-12T02:31:30.639Z,82.33
2023-04-12T02:32:33.591Z,82.31
2023-04-12T02:33:37.181Z,82.25
2023-04-12T02:34:44.198Z,82.31
2023-04-12T02:35:52.572Z,82.57
2023-04-12T02:36:56.069Z,82.36
2023-04-12T02:37:58.984Z,82.51
2023-04-12T02:39:05.354Z,82.77
2023-04-12T02:40:11.612Z,82.55
2023-04-12T02:41:19.060Z,82.61
2023-04-12T02:42:21.965Z,82.55
2023-04-12T02:43:25.551Z,82.70
2023-04-12T02:44:34.728Z,82.63
2023-04-12T02:45:47.688Z,82.81
2023-04-12T02:46:50.827Z,82.75
2023-04-12T02:47:55.893Z,82.76
2023-04-12T02:49:01.702Z,82.81
2023-04-12T02:50:09.427Z,82.80
2023-04-12T02:51:21.157Z,82.97
2023-04-12T02:52:25.764Z,82.90
2023-04-12T02:53:42.420Z,82.92
2023-04-12T02:54:57.368Z,82.94
2023-04-12T02:56:01.359Z,83.08
2023-04-12T02:57:05.414Z,82.84
2023-04-12T02:58:11.195Z,82.98
2023-04-12T02:59:18.744Z,82.78
2023-04-12T03:00:39.489Z,82.88
2023-04-12T03:01:46.940Z,82.95
2023-04-12T03:02:59.119Z,83.00
2023-04-12T03:04:04.231Z,83.05
2023-04-12T03:05:27.678Z,83.03
2023-04-12T03:06:32.119Z,83.03
2023-04-12T03:07:38.804Z,83.07
2023-04-12T03:08:42.148Z,83.19
2023-04-12T03:09:47.004Z,83.07
2023-04-12T03:10:56.169Z,82.97
2023-04-12T03:11:59.834Z,83.12
2023-04-12T03:13:05.002Z,83.02
2023-04-12T03:14:17.456Z,83.11
2023-04-12T03:15:23.507Z,83.17
2023-04-12T03:16:29.743Z,83.22
2023-04-12T03:17:41.227Z,83.21
2023-04-12T03:18:44.507Z,83.29
2023-04-12T03:19:49.259Z,83.13
2023-04-12T03:20:56.358Z,83.11
2023-04-12T03:22:00.065Z,83.04
2023-04-12T03:23:03.261Z,83.18
2023-04-12T03:24:07.336Z,83.27
2023-04-12T03:25:12.746Z,83.32
2023-04-12T03:26:20.633Z,83.23
2023-04-12T03:27:32.982Z,83.28
2023-04-12T03:28:36.293Z,83.41
2023-04-12T03:29:42.327Z,83.38
2023-04-12T03:30:46.163Z,83.43
2023-04-12T03:31:49.438Z,83.38
2023-04-12T03:32:52.407Z,83.36
2023-04-12T03:33:56.069Z,83.49
2023-04-12T03:35:00.424Z,83.47
2023-04-12T03:36:04.549Z,83.41
2023-04-12T03:37:07.578Z,83.43
2023-04-12T03:38:15.459Z,83.42
2023-04-12T03:39:18.930Z,83.47
2023-04-12T03:40:25.136Z,83.37
2023-04-12T03:41:33.789Z,83.39
2023-04-12T03:42:39.700Z,83.38
2023-04-12T03:43:50.444Z,83.61
2023-04-12T03:44:54.973Z,83.38
2023-04-12T03:45:58.545Z,83.51
2023-04-12T03:47:01.793Z,83.57
2023-04-12T03:48:12.009Z,83.43
2023-04-12T03:49:18.686Z,83.51
2023-04-12T03:50:23.317Z,83.45
2023-04-12T03:51:31.325Z,83.47
2023-04-12T03:52:40.348Z,83.56
2023-04-12T03:53:43.548Z,83.73
2023-04-12T03:54:50.258Z,83.71
2023-04-12T03:56:00.813Z,83.70
2023-04-12T03:57:07.363Z,83.75
2023-04-12T03:58:31.186Z,83.76
2023-04-12T03:59:34.338Z,83.72
2023-04-12T04:00:37.650Z,83.79
2023-04-12T04:01:43.557Z,83.72
2023-04-12T04:02:47.452Z,83.73
2023-04-12T04:03:51.162Z,83.77
2023-04-12T04:05:04.102Z,83.71
2023-04-12T04:06:08.290Z,83.78
2023-04-12T04:07:12.961Z,83.95
2023-04-12T04:08:17.685Z,83.88
2023-04-12T04:09:29.573Z,84.01
2023-04-12T04:10:33.414Z,83.78
2023-04-12T04:11:37.835Z,83.78
2023-04-12T04:12:42.334Z,83.91
2023-04-12T04:13:47.210Z,83.88
2023-04-12T04:14:54.372Z,83.77
2023-04-12T04:16:10.312Z,83.84
2023-04-12T04:17:14.941Z,84.04
2023-04-12T04:18:18.020Z,84.05
2023-04-12T04:19:21.707Z,83.96
2023-04-12T04:20:26.038Z,83.93
2023-04-12T04:21:30.802Z,84.03
2023-04-12T04:22:34.695Z,83.94
2023-04-12T04:23:38.988Z,84.07
2023-04-12T04:24:42.768Z,84.06
2023-04-12T04:25:46.391Z,84.02
2023-04-12T04:26:50.443Z,84.05
2023-04-12T04:28:02.858Z,84.02
2023-04-12T04:29:06.531Z,83.95
2023-04-12T04:30:15.360Z,84.11
2023-04-12T04:31:22.793Z,84.10
2023-04-12T04:32:26.494Z,84.34
2023-04-12T04:33:33.753Z,84.17
2023-04-12T04:34:37.657Z,84.11
2023-04-12T04:35:45.910Z,84.11
2023-04-12T04:37:02.783Z,84.13
2023-04-12T04:38:05.793Z,84.16
2023-04-12T04:39:10.064Z,84.02
2023-04-12T04:40:21.453Z,84.03
2023-04-12T04:41:26.418Z,84.06
2023-04-12T04:42:33.014Z,84.01
2023-04-12T04:43:46.882Z,84.14
2023-04-12T04:45:02.631Z,83.92
2023-04-12T04:46:07.300Z,84.10
2023-04-12T04:47:10.539Z,84.22
2023-04-12T04:48:13.475Z,84.17
2023-04-12T04:49:16.506Z,84.29
2023-04-12T04:50:24.157Z,84.14
2023-04-12T04:51:27.704Z,84.16
2023-04-12T04:52:31.058Z,84.07
2023-04-12T04:53:38.484Z,84.09
2023-04-12T04:54:41.807Z,84.10
2023-04-12T04:55:44.920Z,83.98
2023-04-12T04:56:47.795Z,84.05
2023-04-12T04:57:52.484Z,84.21
2023-04-12T04:58:57.017Z,84.09
2023-04-12T05:00:00.931Z,83.95
2023-04-12T05:01:05.300Z,83.98
2023-04-12T05:02:08.793Z,83.89
2023-04-12T05:03:12.070Z,83.97
2023-04-12T05:04:15.519Z,84.08
2023-04-12T05:05:18.558Z,84.02
2023-04-12T05:06:22.526Z,84.04
2023-04-12T05:07:26.252Z,84.16
2023-04-12T05:08:29.413Z,84.16
2023-04-12T05:09:32.305Z,84.02
2023-04-12T05:10:35.741Z,84.12
2023-04-12T05:11:39.057Z,83.92
2023-04-12T05:12:45.929Z,83.94
2023-04-12T05:13:50.319Z,84.16
2023-04-12T05:14:58.218Z,83.95
2023-04-12T05:16:12.410Z,84.12
2023-04-12T05:17:16.056Z,84.12
2023-04-12T05:18:22.003Z,84.15
2023-04-12T05:19:26.248Z,84.11
2023-04-12T05:20:29.801Z,84.02
2023-04-12T05:21:33.892Z,84.06
2023-04-12T05:22:36.783Z,84.09
2023-04-12T05:23:44.749Z,84.06
2023-04-12T05:24:48.651Z,84.03
2023-04-12T05:25:51.548Z,83.99
2023-04-12T05:26:54.710Z,83.95
2023-04-12T05:27:57.670Z,83.91
2023-04-12T05:29:01.793Z,83.91
2023-04-12T05:30:05.691Z,83.99
2023-04-12T05:31:09.596Z,84.04
2023-04-12T05:32:14.106Z,84.04
2023-04-12T05:33:17.305Z,84.08
2023-04-12T05:34:22.084Z,84.02
2023-04-12T05:35:31.547Z,84.14
2023-04-12T05:36:35.480Z,84.04
2023-04-12T05:37:39.452Z,83.91
2023-04-12T05:38:43.486Z,84.02
2023-04-12T05:39:48.356Z,84.12
2023-04-12T05:40:54.290Z,83.66
2023-04-12T05:41:59.533Z,83.93
2023-04-12T05:43:03.686Z,83.82
2023-04-12T05:44:07.627Z,84.04
2023-04-12T05:45:12.194Z,83.95
2023-04-12T05:46:16.124Z,83.88
2023-04-12T05:47:20.112Z,83.93
2023-04-12T05:48:23.593Z,83.96
2023-04-12T05:49:30.634Z,83.91
2023-04-12T05:50:34.533Z,83.83
2023-04-12T05:51:41.271Z,83.86
2023-04-12T05:52:51.070Z,83.98
2023-04-12T05:53:55.150Z,83.94
2023-04-12T05:54:58.507Z,83.89
2023-04-12T05:56:02.151Z,84.16
2023-04-12T05:57:05.710Z,83.92
2023-04-12T05:58:09.008Z,84.01
2023-04-12T05:59:12.514Z,83.66
2023-04-12T06:00:18.983Z,83.66
2023-04-12T06:01:22.041Z,83.86
2023-04-12T06:02:26.335Z,83.78
2023-04-12T06:03:31.377Z,83.79
2023-04-12T06:04:50.380Z,83.92
2023-04-12T06:05:54.259Z,83.94
2023-04-12T06:06:57.838Z,83.69
2023-04-12T06:08:01.003Z,83.59
2023-04-12T06:09:05.040Z,83.83
2023-04-12T06:10:10.071Z,83.82
2023-04-12T06:11:13.301Z,83.67
2023-04-12T06:12:18.214Z,83.72
2023-04-12T06:13:21.594Z,83.80
2023-04-12T06:14:24.658Z,83.77
2023-04-12T06:15:27.702Z,83.73
2023-04-12T06:16:30.841Z,83.79
2023-04-12T06:17:34.680Z,83.69
2023-04-12T06:18:38.243Z,83.72
2023-04-12T06:19:41.516Z,83.59
2023-04-12T06:20:45.698Z,83.48
2023-04-12T06:21:49.058Z,83.41
2023-04-12T06:22:51.931Z,83.15
2023-04-12T06:23:54.885Z,83.09
2023-04-12T06:24:58.752Z,83.11
2023-04-12T06:26:01.702Z,83.15
2023-04-12T06:27:05.055Z,83.24
2023-04-12T06:28:08.248Z,83.12
2023-04-12T06:29:18.515Z,83.30
2023-04-12T06:30:22.476Z,83.09
2023-04-12T06:31:28.499Z,82.97
2023-04-12T06:32:32.373Z,82.92
2023-04-12T06:33:36.889Z,82.92
2023-04-12T06:34:43.562Z,82.77
2023-04-12T06:35:50.606Z,82.90
2023-04-12T06:36:53.620Z,82.80
2023-04-12T06:37:56.529Z,82.80
2023-04-12T06:38:59.667Z,83.00
2023-04-12T06:40:02.500Z,83.00
2023-04-12T06:41:06.305Z,82.86
2023-04-12T06:42:09.188Z,82.67
2023-04-12T06:43:19.228Z,82.90
2023-04-12T06:44:22.143Z,82.87
2023-04-12T06:45:25.090Z,82.97
2023-04-12T06:46:28.903Z,83.01
2023-04-12T06:47:32.876Z,82.94
2023-04-12T06:48:35.889Z,82.76
2023-04-12T06:49:39.690Z,82.84
2023-04-12T06:50:42.545Z,82.71
2023-04-12T06:51:46.007Z,82.68
2023-04-12T06:52:48.984Z,82.83
2023-04-12T06:53:51.805Z,82.76
2023-04-12T06:54:56.998Z,82.88
2023-04-12T06:56:04.207Z,82.84
2023-04-12T06:57:13.901Z,82.83
2023-04-12T06:58:16.837Z,82.70
2023-04-12T06:59:19.871Z,82.89
2023-04-12T07:00:23.045Z,82.88
2023-04-12T07:01:26.068Z,82.60
2023-04-12T07:02:29.178Z,82.80
2023-04-12T07:03:33.475Z,82.73
2023-04-12T07:04:36.718Z,82.67
2023-04-12T07:05:39.731Z,82.64
2023-04-12T07:06:42.763Z,82.48
2023-04-12T07:07:45.612Z,82.71
2023-04-12T07:08:48.491Z,82.63
2023-04-12T07:09:53.099Z,82.66
2023-04-12T07:10:56.130Z,82.67
2023-04-12T07:12:00.461Z,82.70
2023-04-12T07:13:07.185Z,82.60
2023-04-12T07:14:10.039Z,82.61
2023-04-12T07:15:12.914Z,82.52
2023-04-12T07:16:16.054Z,82.48
2023-04-12T07:17:19.115Z,82.57
2023-04-12T07:18:22.052Z,82.37
2023-04-12T07:19:24.931Z,82.46
2023-04-12T07:20:27.860Z,82.38
2023-04-12T07:21:30.785Z,82.43
2023-04-12T07:22:33.765Z,82.47
2023-04-12T07:23:36.621Z,82.61
2023-04-12T07:24:39.483Z,82.48
2023-04-12T07:25:42.486Z,82.46
2023-04-12T07:26:45.329Z,82.56
2023-04-12T07:27:49.914Z,82.38
2023-04-12T07:28:55.084Z,82.23
2023-04-12T07:29:58.874Z,82.20
2023-04-12T07:31:04.808Z,82.31
2023-04-12T07:32:09.098Z,82.26
2023-04-12T07:33:19.225Z,82.18
2023-04-12T07:34:24.426Z,82.28
2023-04-12T07:35:27.526Z,82.16
2023-04-12T07:36:31.444Z,82.14
2023-04-12T07:37:35.971Z,82.06
2023-04-12T07:38:38.970Z,82.19
2023-04-12T07:39:41.875Z,82.11
2023-04-12T07:40:45.146Z,81.97
2023-04-12T07:41:49.677Z,81.91
2023-04-12T07:42:52.528Z,82.10
2023-04-12T07:43:55.382Z,82.02
2023-04-12T07:44:58.296Z,82.04
2023-04-12T07:46:04.642Z,81.94
2023-04-12T07:47:07.569Z,81.79
2023-04-12T07:48:11.984Z,81.83
2023-04-12T07:49:14.888Z,81.98
2023-04-12T07:50:17.876Z,81.85
2023-04-12T07:51:20.764Z,81.84
2023-04-12T07:52:23.720Z,81.78
2023-04-12T07:53:28.733Z,81.61
2023-04-12T07:54:31.652Z,81.63
2023-04-12T07:55:34.480Z,81.61
2023-04-12T07:56:37.435Z,81.52
2023-04-12T07:57:41.162Z,81.57
2023-04-12T07:58:44.044Z,81.59
2023-04-12T07:59:47.053Z,81.48
2023-04-12T08:00:51.127Z,81.36
2023-04-12T08:01:54.055Z,81.37
2023-04-12T08:02:57.067Z,81.35
2023-04-12T08:04:00.519Z,81.31
2023-04-12T08:05:03.693Z,81.27
2023-04-12T08:06:07.906Z,81.39
2023-04-12T08:07:10.881Z,81.38
2023-04-12T08:08:13.743Z,81.58
2023-04-12T08:09:16.667Z,81.42
2023-04-12T08:10:19.917Z,81.41
2023-04-12T08:11:22.780Z,81.54
2023-04-12T08:12:26.261Z,81.48
2023-04-12T08:13:29.178Z,81.55
2023-04-12T08:14:32.015Z,81.43
2023-04-12T08:15:35.016Z,81.46
2023-04-12T08:16:37.912Z,81.44
2023-04-12T08:17:43.978Z,81.46
2023-04-12T08:18:46.999Z,81.46
2023-04-12T08:19:49.831Z,81.67
2023-04-12T08:20:52.755Z,81.53
2023-04-12T08:21:55.735Z,81.41
2023-04-12T08:22:58.904Z,81.41
2023-04-12T08:24:01.861Z,81.26
2023-04-12T08:25:05.036Z,81.37
2023-04-12T08:26:07.871Z,81.22
2023-04-12T08:27:13.912Z,81.33
2023-04-12T08:28:17.002Z,81.35
2023-04-12T08:29:19.891Z,81.43
2023-04-12T08:30:26.871Z,81.34
2023-04-12T08:31:29.958Z,81.12
2023-04-12T08:32:32.954Z,81.16
2023-04-12T08:33:35.899Z,81.07
2023-04-12T08:34:39.687Z,80.79
2023-04-12T08:35:42.548Z,80.85
2023-04-12T08:36:45.916Z,80.86
2023-04-12T08:37:49.268Z,80.73
2023-04-12T08:38:53.231Z,80.82
2023-04-12T08:39:56.232Z,80.77
2023-04-12T08:40:59.360Z,80.64
2023-04-12T08:42:04.965Z,80.64
2023-04-12T08:43:11.485Z,80.87
2023-04-12T08:44:15.639Z,81.06
2023-04-12T08:45:18.534Z,80.99
2023-04-12T08:46:22.157Z,80.85
2023-04-12T08:47:25.097Z,80.87
2023-04-12T08:48:29.079Z,80.88
2023-04-12T08:49:33.276Z,80.51
2023-04-12T08:50:39.815Z,80.34
2023-04-12T08:51:43.420Z,80.59
2023-04-12T08:52:48.936Z,80.81
2023-04-12T08:53:54.172Z,80.70
2023-04-12T08:54:57.061Z,80.77
2023-04-12T08:56:00.246Z,80.87
2023-04-12T08:57:08.293Z,80.72
2023-04-12T08:58:14.536Z,80.76
2023-04-12T08:59:17.800Z,80.49
2023-04-12T09:00:21.648Z,80.75
2023-04-12T09:01:25.114Z,81.00
2023-04-12T09:02:28.744Z,81.17
2023-04-12T09:03:33.705Z,81.17
2023-04-12T09:04:48.782Z,81.05
2023-04-12T09:05:51.775Z,80.82
2023-04-12T09:06:54.844Z,80.69
2023-04-12T09:07:58.702Z,80.63
2023-04-12T09:10:09.841Z,79.55
2023-04-12T09:11:30.929Z,79.64
2023-04-12T09:12:34.021Z,79.40
2023-04-12T09:13:37.255Z,79.51
2023-04-12T09:14:43.691Z,79.72
2023-04-12T09:15:50.822Z,79.46
2023-04-12T09:16:53.747Z,79.41
2023-04-12T09:18:06.182Z,79.32
2023-04-12T09:19:09.608Z,79.24
2023-04-12T09:20:12.529Z,79.31
2023-04-12T09:21:15.512Z,79.33
2023-04-12T09:22:18.802Z,79.32
2023-04-12T09:23:26.529Z,78.95
2023-04-12T09:24:29.978Z,78.82
2023-04-12T09:25:53.997Z,78.94
2023-04-12T09:27:05.076Z,78.89
2023-04-12T09:28:27.922Z,78.92
2023-04-12T09:29:31.556Z,78.91
2023-04-12T09:30:44.946Z,78.96
2023-04-12T09:32:04.850Z,78.82
2023-04-12T09:33:13.664Z,78.71
2023-04-12T09:34:16.572Z,78.73
2023-04-12T09:35:33.138Z,78.64
2023-04-12T09:36:40.125Z,78.72
2023-04-12T09:37:43.172Z,78.74
2023-04-12T09:39:04.258Z,78.70
2023-04-12T09:40:09.388Z,78.80
2023-04-12T09:41:20.240Z,78.86
2023-04-12T09:42:32.985Z,78.84
2023-04-12T09:43:38.694Z,78.72
2023-04-12T09:44:41.652Z,78.52
2023-04-12T09:45:44.645Z,78.34
2023-04-12T09:46:52.264Z,78.15
2023-04-12T09:47:55.533Z,78.42
2023-04-12T09:48:59.354Z,78.82
2023-04-12T09:50:04.688Z,79.04
2023-04-12T09:51:08.253Z,79.24
2023-04-12T09:52:12.870Z,79.11
2023-04-12T09:53:20.269Z,78.87
2023-04-12T09:54:24.022Z,78.45
2023-04-12T09:55:28.798Z,77.87
2023-04-12T09:56:33.948Z,77.99
2023-04-12T09:57:42.321Z,77.61
2023-04-12T09:58:46.969Z,77.59
2023-04-12T09:59:52.779Z,77.99
2023-04-12T10:00:59.805Z,78.27
2023-04-12T10:02:07.298Z,78.53
2023-04-12T10:03:10.622Z,78.68
2023-04-12T10:04:14.298Z,78.72
2023-04-12T10:05:19.674Z,78.25
2023-04-12T10:06:22.987Z,77.63
2023-04-12T10:07:27.342Z,77.21
2023-04-12T10:08:31.783Z,76.96
2023-04-12T10:09:37.735Z,76.80
2023-04-12T10:10:40.685Z,76.42
2023-04-12T10:11:45.452Z,76.35
2023-04-12T10:12:49.775Z,76.28
2023-04-12T10:13:52.777Z,75.93
2023-04-12T10:14:56.151Z,76.21
2023-04-12T10:16:00.457Z,76.34
2023-04-12T10:17:05.423Z,76.25
2023-04-12T10:18:11.379Z,75.79
2023-04-12T10:19:15.057Z,75.62
2023-04-12T10:20:19.785Z,75.48
2023-04-12T10:21:23.158Z,75.46
2023-04-12T10:22:26.793Z,75.14
2023-04-12T10:23:32.289Z,74.89
2023-04-12T10:24:35.246Z,74.70
2023-04-12T10:25:42.939Z,74.70
2023-04-12T10:26:46.025Z,74.86
2023-04-12T10:27:49.444Z,74.95
2023-04-12T10:29:27.107Z,74.63
2023-04-12T10:30:31.962Z,74.23
2023-04-12T10:31:35.209Z,74.32
2023-04-12T10:32:38.174Z,74.49
2023-04-12T10:33:42.989Z,74.50
2023-04-12T10:34:51.807Z,74.39
2023-04-12T10:36:00.702Z,74.12
2023-04-12T10:37:04.471Z,74.10
2023-04-12T10:38:07.331Z,74.56
2023-04-12T10:39:11.311Z,74.60
2023-04-12T10:40:19.260Z,74.22
2023-04-12T10:41:22.470Z,74.07
2023-04-12T10:42:29.610Z,74.00
2023-04-12T10:43:36.076Z,73.81
2023-04-12T10:44:38.961Z,73.93
2023-04-12T10:45:42.058Z,74.06
2023-04-12T10:46:44.909Z,74.22
2023-04-12T10:48:01.890Z,74.30
2023-04-12T10:49:09.825Z,73.87
2023-04-12T10:50:24.534Z,74.00
2023-04-12T10:51:28.641Z,73.60
2023-04-12T10:52:41.799Z,73.65
2023-04-12T10:53:46.869Z,74.11
2023-04-12T10:54:58.185Z,74.32
2023-04-12T10:56:01.272Z,74.04
2023-04-12T10:57:07.086Z,73.62
2023-04-12T10:58:48.966Z,73.29
2023-04-12T10:59:59.653Z,72.94
2023-04-12T11:01:11.764Z,72.98
2023-04-12T11:02:15.983Z,73.20
2023-04-12T11:03:23.419Z,73.14
2023-04-12T11:04:27.148Z,73.28
2023-04-12T11:06:19.925Z,73.35
2023-04-12T11:08:07.546Z,73.13
2023-04-12T11:09:28.640Z,73.12
2023-04-12T11:10:31.909Z,73.40
2023-04-12T11:11:35.249Z,73.27
2023-04-12T11:12:39.345Z,73.31
2023-04-12T11:13:42.652Z,73.47
2023-04-12T11:14:48.350Z,73.51
2023-04-12T11:15:57.024Z,73.19
2023-04-12T11:17:23.974Z,73.13
2023-04-12T11:18:28.053Z,72.99
2023-04-12T11:19:35.034Z,73.18
2023-04-12T11:20:39.736Z,72.86
2023-04-12T11:21:43.648Z,72.82
2023-04-12T11:22:46.626Z,72.57
2023-04-12T11:23:51.126Z,72.44
2023-04-12T11:24:56.719Z,72.63
2023-04-12T11:25:59.687Z,72.48
2023-04-12T11:27:03.279Z,72.47
2023-04-12T11:28:17.235Z,72.50
2023-04-12T11:29:24.630Z,72.21
2023-04-12T11:30:27.466Z,72.01
2023-04-12T11:31:30.309Z,71.76
2023-04-12T11:32:34.865Z,71.64
2023-04-12T11:33:40.094Z,71.55
2023-04-12T11:34:45.303Z,71.60
2023-04-12T11:35:48.682Z,71.51
2023-04-12T11:36:55.086Z,71.35
2023-04-12T11:37:58.511Z,71.35
2023-04-12T11:39:02.071Z,71.59
2023-04-12T11:40:05.867Z,71.87
2023-04-12T11:41:09.173Z,71.56
2023-04-12T11:42:16.372Z,71.52
2023-04-12T11:43:22.431Z,71.61
2023-04-12T11:44:25.741Z,71.67
2023-04-12T11:45:31.586Z,71.81
2023-04-12T11:46:35.678Z,72.11
2023-04-12T11:47:43.706Z,72.09
2023-04-12T11:48:47.195Z,72.03
2023-04-12T11:49:54.231Z,72.05
2023-04-12T11:51:10.161Z,72.02
2023-04-12T11:52:15.261Z,71.95
2023-04-12T11:53:19.569Z,71.95
2023-04-12T11:54:32.453Z,71.95
2023-04-12T11:55:35.655Z,72.04
2023-04-12T11:56:38.838Z,72.29
2023-04-12T11:57:41.743Z,72.45
2023-04-12T11:58:47.849Z,72.40
2023-04-12T11:59:50.841Z,72.06
2023-04-12T12:00:54.854Z,72.02
2023-04-12T12:01:58.790Z,72.12
2023-04-12T12:03:07.695Z,72.23
2023-04-12T12:04:11.808Z,72.34
2023-04-12T12:05:15.059Z,72.42
2023-04-12T12:06:19.876Z,72.12
2023-04-12T12:07:24.435Z,71.57
2023-04-12T12:08:27.760Z,71.30
2023-04-12T12:09:31.440Z,71.03
2023-04-12T12:10:55.506Z,70.88
2023-04-12T12:12:02.885Z,70.22
2023-04-12T12:13:12.765Z,69.87
2023-04-12T12:14:19.774Z,69.24
2023-04-12T12:15:22.591Z,69.03
2023-04-12T12:16:30.609Z,68.82
2023-04-12T12:17:38.682Z,68.47
2023-04-12T12:18:50.278Z,68.55
2023-04-12T12:19:58.254Z,68.43
2023-04-12T12:21:01.391Z,67.51
2023-04-12T12:22:14.356Z,67.13
2023-04-12T12:23:33.457Z,66.17
2023-04-12T12:24:39.750Z,65.90
2023-04-12T12:25:48.215Z,65.93
2023-04-12T12:26:51.243Z,66.21
2023-04-12T12:27:57.838Z,66.40
2023-04-12T12:29:01.261Z,66.45
2023-04-12T12:30:07.538Z,66.59
2023-04-12T12:31:11.437Z,66.79
2023-04-12T12:32:15.122Z,66.70
2023-04-12T12:33:24.821Z,66.60
2023-04-12T12:34:34.967Z,66.38
2023-04-12T12:35:38.118Z,66.08
2023-04-12T12:36:40.938Z,66.36
2023-04-12T12:37:56.097Z,66.46
2023-04-12T12:39:20.251Z,66.37
2023-04-12T12:40:32.618Z,66.20
2023-04-12T12:41:36.215Z,65.46
2023-04-12T12:42:56.346Z,64.85
2023-04-12T12:44:00.325Z,64.90
2023-04-12T12:45:04.837Z,65.22
2023-04-12T12:46:07.740Z,65.20
2023-04-12T12:47:14.534Z,65.01
2023-04-12T12:48:19.536Z,65.28
2023-04-12T12:49:22.534Z,65.34
2023-04-12T12:50:27.549Z,65.28
2023-04-12T12:51:31.573Z,65.23
2023-04-12T12:52:34.513Z,65.04
2023-04-12T12:53:38.435Z,64.55
2023-04-12T12:54:42.043Z,64.53
2023-04-12T12:55:44.966Z,64.37
2023-04-12T12:56:47.964Z,64.42
2023-04-12T12:58:07.371Z,64.10
2023-04-12T12:59:10.741Z,64.30
2023-04-12T13:00:15.410Z,64.57
2023-04-12T13:01:18.329Z,64.21
2023-04-12T13:02:21.398Z,64.57
2023-04-12T13:03:24.719Z,64.70
2023-04-12T13:04:28.225Z,65.07
2023-04-12T13:05:31.258Z,65.11
2023-04-12T13:06:34.093Z,65.13
2023-04-12T13:07:37.055Z,64.95
2023-04-12T13:08:39.956Z,65.32
2023-04-12T13:09:42.931Z,65.63
2023-04-12T13:10:45.838Z,65.74
2023-04-12T13:11:54.780Z,65.59
2023-04-12T13:12:58.846Z,65.27
2023-04-12T13:14:02.032Z,65.65
2023-04-12T13:15:18.121Z,66.05
2023-04-12T13:16:26.819Z,66.22
2023-04-12T13:17:31.291Z,66.16
2023-04-12T13:18:34.180Z,65.52
2023-04-12T13:19:37.362Z,65.44
2023-04-12T13:20:40.283Z,65.57
2023-04-12T13:21:43.150Z,65.51
2023-04-12T13:22:46.126Z,65.55
2023-04-12T13:23:49.019Z,65.46
2023-04-12T13:24:51.905Z,65.47
2023-04-12T13:25:54.794Z,65.62
2023-04-12T13:26:58.363Z,65.56
2023-04-12T13:28:01.222Z,65.09
2023-04-12T13:29:04.050Z,64.73
2023-04-12T13:30:07.588Z,64.59
2023-04-12T13:31:10.672Z,64.51
2023-04-12T13:32:14.288Z,64.25
2023-04-12T13:33:21.006Z,64.16
2023-04-12T13:34:25.049Z,64.33
2023-04-12T13:35:27.897Z,64.49
2023-04-12T13:36:31.140Z,64.51
2023-04-12T13:37:34.380Z,64.48
2023-04-12T13:38:37.224Z,64.40
2023-04-12T13:39:40.407Z,64.31
2023-04-12T13:40:43.317Z,64.11
2023-04-12T13:41:46.258Z,63.72
2023-04-12T13:42:49.114Z,63.44
2023-04-12T13:43:52.073Z,63.63
2023-04-12T13:44:54.970Z,63.67
2023-04-12T13:45:57.906Z,63.84
2023-04-12T13:47:00.981Z,63.95
2023-04-12T13:48:04.059Z,63.81
2023-04-12T13:49:07.057Z,63.85
2023-04-12T13:50:10.497Z,63.83
2023-04-12T13:51:13.377Z,63.87
2023-04-12T13:52:16.237Z,63.81
2023-04-12T13:53:19.085Z,63.22
2023-04-12T13:54:22.058Z,62.67
2023-04-12T13:55:25.001Z,62.67
2023-04-12T13:56:30.680Z,62.68
2023-04-12T13:57:35.072Z,62.79
2023-04-12T13:58:39.986Z,62.96
2023-04-12T13:59:43.018Z,62.82
2023-04-12T14:00:46.130Z,62.73
2023-04-12T14:01:49.214Z,62.53
2023-04-12T14:02:52.331Z,62.66
2023-04-12T14:03:55.883Z,62.83
2023-04-12T14:05:00.203Z,62.52
2023-04-12T14:06:03.399Z,62.46
2023-04-12T14:07:06.218Z,62.44
2023-04-12T14:08:09.027Z,62.43